sensor_id;sensor_type;location;lat;lon;timestamp;pressure;altitude;pressure_sealevel;temperature;humidity
22311;BME280;11323;49.610;11.016;2023-08-06T00:00:47;97381.13;;;21.43;58.17
22311;BME280;11323;49.610;11.016;2023-08-06T00:05:47;97400.59;;;21.49;58.32
22311;BME280;11323;49.610;11.016;2023-08-06T00:10:48;97389.28;;;21.41;58.01
22311;BME280;11323;49.610;11.016;2023-08-06T00:15:49;97409.09;;;21.51;58.04
22311;BME280;11323;49.610;11.016;2023-08-06T00:20:49;97405.41;;;21.52;58.22
22311;BME280;11323;49.610;11.016;2023-08-06T00:25:49;97388.81;;;21.44;58.30
22311;BME280;11323;49.610;11.016;2023-08-06T00:30:54;97392.16;;;21.52;58.09
22311;BME280;11323;49.610;11.016;2023-08-06T00:35:54;97378.22;;;21.44;58.06
22311;BME280;11323;49.610;11.016;2023-08-06T00:40:55;97373.25;;;21.48;58.02
22311;BME280;11323;49.610;11.016;2023-08-06T00:45:55;97363.34;;;21.43;57.99
22311;BME280;11323;49.610;11.016;2023-08-06T00:50:56;97351.72;;;21.44;58.25
22311;BME280;11323;49.610;11.016;2023-08-06T00:55:57;97349.06;;;21.44;58.09
22311;BME280;11323;49.610;11.016;2023-08-06T01:00:58;97341.13;;;21.44;58.12
22311;BME280;11323;49.610;11.016;2023-08-06T01:05:58;97348.59;;;21.48;57.95
22311;BME280;11323;49.610;11.016;2023-08-06T01:16:20;97354.63;;;21.43;58.07
22311;BME280;11323;49.610;11.016;2023-08-06T01:21:21;97355.41;;;21.43;57.92
22311;BME280;11323;49.610;11.016;2023-08-06T01:26:33;97356.44;;;21.42;57.99
22311;BME280;11323;49.610;11.016;2023-08-06T01:31:38;97359.44;;;21.46;58.14
22311;BME280;11323;49.610;11.016;2023-08-06T01:36:40;97329.16;;;21.30;57.99
22311;BME280;11323;49.610;11.016;2023-08-06T01:41:41;97328.81;;;21.38;57.78
22311;BME280;11323;49.610;11.016;2023-08-06T01:46:41;97343.75;;;21.44;57.99
22311;BME280;11323;49.610;11.016;2023-08-06T01:51:41;97320.84;;;21.38;58.10
22311;BME280;11323;49.610;11.016;2023-08-06T01:56:42;97313.13;;;21.37;57.90
22311;BME280;11323;49.610;11.016;2023-08-06T02:01:42;97304.59;;;21.35;58.01
22311;BME280;11323;49.610;11.016;2023-08-06T02:06:43;97321.97;;;21.42;57.93
22311;BME280;11323;49.610;11.016;2023-08-06T02:11:43;97314.72;;;21.38;58.20
22311;BME280;11323;49.610;11.016;2023-08-06T02:16:43;97296.31;;;21.31;57.90
22311;BME280;11323;49.610;11.016;2023-08-06T02:21:44;97308.66;;;21.37;58.01
22311;BME280;11323;49.610;11.016;2023-08-06T02:26:44;97288.03;;;21.27;57.68
22311;BME280;11323;49.610;11.016;2023-08-06T02:31:46;97295.59;;;21.36;57.84
22311;BME280;11323;49.610;11.016;2023-08-06T02:36:47;97296.66;;;21.35;57.92
22311;BME280;11323;49.610;11.016;2023-08-06T02:41:48;97292.75;;;21.37;57.88
22311;BME280;11323;49.610;11.016;2023-08-06T02:46:48;97289.28;;;21.37;57.87
22311;BME280;11323;49.610;11.016;2023-08-06T02:51:48;97277.31;;;21.34;57.74
22311;BME280;11323;49.610;11.016;2023-08-06T02:56:49;97252.41;;;21.35;58.05
22311;BME280;11323;49.610;11.016;2023-08-06T03:01:57;97245.50;;;21.34;57.75
22311;BME280;11323;49.610;11.016;2023-08-06T03:07:05;97245.97;;;21.31;57.84
22311;BME280;11323;49.610;11.016;2023-08-06T03:12:14;97223.91;;;21.13;57.82
22311;BME280;11323;49.610;11.016;2023-08-06T03:17:15;97234.63;;;21.07;58.28
22311;BME280;11323;49.610;11.016;2023-08-06T03:22:17;97228.94;;;20.86;58.44
22311;BME280;11323;49.610;11.016;2023-08-06T03:27:19;97226.53;;;20.37;59.35
22311;BME280;11323;49.610;11.016;2023-08-06T03:32:21;97227.59;;;19.94;60.60
22311;BME280;11323;49.610;11.016;2023-08-06T03:37:22;97227.06;;;19.73;61.03
22311;BME280;11323;49.610;11.016;2023-08-06T03:42:24;97202.94;;;19.39;61.54
22311;BME280;11323;49.610;11.016;2023-08-06T03:47:25;97236.66;;;19.55;61.49
22311;BME280;11323;49.610;11.016;2023-08-06T03:52:27;97226.97;;;19.49;61.49
22311;BME280;11323;49.610;11.016;2023-08-06T03:57:27;97223.22;;;19.26;62.05
22311;BME280;11323;49.610;11.016;2023-08-06T04:02:28;97224.25;;;19.07;62.48
22311;BME280;11323;49.610;11.016;2023-08-06T04:07:28;97214.13;;;19.04;62.26
22311;BME280;11323;49.610;11.016;2023-08-06T04:12:29;97231.22;;;19.01;62.50
22311;BME280;11323;49.610;11.016;2023-08-06T04:17:30;97226.31;;;19.05;62.16
22311;BME280;11323;49.610;11.016;2023-08-06T04:22:30;97230.91;;;18.91;62.36
22311;BME280;11323;49.610;11.016;2023-08-06T04:27:31;97223.28;;;18.82;62.67
22311;BME280;11323;49.610;11.016;2023-08-06T04:32:32;97216.03;;;18.78;62.24
22311;BME280;11323;49.610;11.016;2023-08-06T04:37:32;97216.78;;;18.66;62.88
22311;BME280;11323;49.610;11.016;2023-08-06T04:42:33;97218.22;;;18.62;62.97
22311;BME280;11323;49.610;11.016;2023-08-06T04:47:33;97197.69;;;18.46;63.23
22311;BME280;11323;49.610;11.016;2023-08-06T04:52:34;97184.63;;;18.32;63.55
22311;BME280;11323;49.610;11.016;2023-08-06T04:57:34;97224.81;;;18.53;63.54
22311;BME280;11323;49.610;11.016;2023-08-06T05:02:34;97205.88;;;18.37;63.77
22311;BME280;11323;49.610;11.016;2023-08-06T05:07:38;97215.28;;;18.52;63.50
22311;BME280;11323;49.610;11.016;2023-08-06T05:12:38;97201.47;;;18.31;64.03
22311;BME280;11323;49.610;11.016;2023-08-06T05:17:38;97206.81;;;18.25;64.44
22311;BME280;11323;49.610;11.016;2023-08-06T05:22:39;97224.19;;;18.32;64.55
22311;BME280;11323;49.610;11.016;2023-08-06T05:27:39;97203.56;;;18.23;64.98
22311;BME280;11323;49.610;11.016;2023-08-06T05:32:39;97209.69;;;18.23;64.80
22311;BME280;11323;49.610;11.016;2023-08-06T05:37:40;97204.53;;;18.28;64.93
22311;BME280;11323;49.610;11.016;2023-08-06T05:42:41;97208.72;;;18.36;64.66
22311;BME280;11323;49.610;11.016;2023-08-06T05:47:41;97197.38;;;18.35;64.71
22311;BME280;11323;49.610;11.016;2023-08-06T05:52:42;97178.03;;;18.23;64.57
22311;BME280;11323;49.610;11.016;2023-08-06T05:57:42;97195.28;;;18.19;65.08
22311;BME280;11323;49.610;11.016;2023-08-06T06:02:42;97183.13;;;18.18;65.12
22311;BME280;11323;49.610;11.016;2023-08-06T06:07:43;97207.03;;;18.23;65.37
22311;BME280;11323;49.610;11.016;2023-08-06T06:12:43;97196.78;;;18.33;64.73
22311;BME280;11323;49.610;11.016;2023-08-06T06:17:44;97198.44;;;18.53;64.76
22311;BME280;11323;49.610;11.016;2023-08-06T06:22:44;97200.69;;;18.68;64.13
22311;BME280;11323;49.610;11.016;2023-08-06T06:27:44;97198.28;;;18.66;64.09
22311;BME280;11323;49.610;11.016;2023-08-06T06:32:45;97185.69;;;18.68;63.89
22311;BME280;11323;49.610;11.016;2023-08-06T06:37:45;97193.44;;;18.63;64.11
22311;BME280;11323;49.610;11.016;2023-08-06T06:42:45;97186.31;;;18.45;64.56
22311;BME280;11323;49.610;11.016;2023-08-06T06:47:47;97187.28;;;18.51;64.52
22311;BME280;11323;49.610;11.016;2023-08-06T06:52:47;97201.19;;;18.58;64.36
22311;BME280;11323;49.610;11.016;2023-08-06T06:57:47;97195.50;;;18.61;63.79
22311;BME280;11323;49.610;11.016;2023-08-06T07:02:48;97194.16;;;18.71;63.57
22311;BME280;11323;49.610;11.016;2023-08-06T07:07:48;97193.44;;;18.82;63.08
22311;BME280;11323;49.610;11.016;2023-08-06T07:12:49;97192.88;;;18.80;62.85
22311;BME280;11323;49.610;11.016;2023-08-06T07:17:49;97190.06;;;18.75;63.51
22311;BME280;11323;49.610;11.016;2023-08-06T07:22:49;97173.06;;;18.71;63.33
22311;BME280;11323;49.610;11.016;2023-08-06T07:27:50;97193.66;;;18.80;63.54
22311;BME280;11323;49.610;11.016;2023-08-06T07:32:50;97185.81;;;18.92;64.68
22311;BME280;11323;49.610;11.016;2023-08-06T07:37:53;97181.56;;;18.91;64.43
22311;BME280;11323;49.610;11.016;2023-08-06T07:42:54;97179.25;;;19.02;64.46
22311;BME280;11323;49.610;11.016;2023-08-06T07:47:54;97180.03;;;19.02;63.84
22311;BME280;11323;49.610;11.016;2023-08-06T07:52:55;97165.47;;;19.00;63.72
22311;BME280;11323;49.610;11.016;2023-08-06T07:57:55;97159.75;;;19.03;63.32
22311;BME280;11323;49.610;11.016;2023-08-06T08:02:55;97154.06;;;18.99;63.46
22311;BME280;11323;49.610;11.016;2023-08-06T08:07:56;97153.47;;;19.16;63.59
22311;BME280;11323;49.610;11.016;2023-08-06T08:12:56;97154.06;;;19.18;62.97
22311;BME280;11323;49.610;11.016;2023-08-06T08:17:57;97146.94;;;19.18;62.55
22311;BME280;11323;49.610;11.016;2023-08-06T08:22:58;97155.56;;;19.25;62.64
22311;BME280;11323;49.610;11.016;2023-08-06T08:27:59;97158.06;;;19.20;62.25
22311;BME280;11323;49.610;11.016;2023-08-06T08:33:00;97146.94;;;19.18;62.35
22311;BME280;11323;49.610;11.016;2023-08-06T08:38:00;97146.41;;;19.28;62.20
22311;BME280;11323;49.610;11.016;2023-08-06T08:43:01;97143.97;;;19.26;62.45
22311;BME280;11323;49.610;11.016;2023-08-06T08:48:02;97164.66;;;19.29;62.39
22311;BME280;11323;49.610;11.016;2023-08-06T08:53:03;97155.66;;;19.19;61.99
22311;BME280;11323;49.610;11.016;2023-08-06T08:58:03;97163.88;;;19.29;61.75
22311;BME280;11323;49.610;11.016;2023-08-06T09:03:06;97160.97;;;19.31;61.48
22311;BME280;11323;49.610;11.016;2023-08-06T09:08:08;97145.56;;;19.27;61.27
22311;BME280;11323;49.610;11.016;2023-08-06T09:13:11;97149.06;;;19.40;61.18
22311;BME280;11323;49.610;11.016;2023-08-06T09:18:12;97165.94;;;19.39;61.40
22311;BME280;11323;49.610;11.016;2023-08-06T09:23:13;97152.63;;;19.34;60.89
22311;BME280;11323;49.610;11.016;2023-08-06T09:28:13;97157.91;;;19.34;60.35
22311;BME280;11323;49.610;11.016;2023-08-06T09:33:18;97156.72;;;19.29;60.59
22311;BME280;11323;49.610;11.016;2023-08-06T09:38:18;97147.06;;;19.23;60.91
22311;BME280;11323;49.610;11.016;2023-08-06T09:43:19;97136.72;;;19.22;60.97
22311;BME280;11323;49.610;11.016;2023-08-06T09:48:24;97150.56;;;19.36;60.23
22311;BME280;11323;49.610;11.016;2023-08-06T09:53:25;97151.69;;;19.28;60.47
22311;BME280;11323;49.610;11.016;2023-08-06T09:58:26;97131.44;;;19.22;60.37
22311;BME280;11323;49.610;11.016;2023-08-06T10:03:27;97128.94;;;19.27;60.50
22311;BME280;11323;49.610;11.016;2023-08-06T10:08:29;97128.34;;;19.25;60.24
22311;BME280;11323;49.610;11.016;2023-08-06T10:13:30;97129.38;;;19.24;60.26
22311;BME280;11323;49.610;11.016;2023-08-06T10:18:31;97128.59;;;19.23;59.82
22311;BME280;11323;49.610;11.016;2023-08-06T10:23:34;97126.50;;;19.25;59.90
22311;BME280;11323;49.610;11.016;2023-08-06T10:28:38;97107.91;;;19.20;59.97
22311;BME280;11323;49.610;11.016;2023-08-06T10:38:48;97113.25;;;19.44;60.01
22311;BME280;11323;49.610;11.016;2023-08-06T10:43:49;97099.78;;;19.45;59.79
22311;BME280;11323;49.610;11.016;2023-08-06T10:48:49;97100.03;;;19.56;59.39
22311;BME280;11323;49.610;11.016;2023-08-06T10:53:50;97089.81;;;19.59;59.56
22311;BME280;11323;49.610;11.016;2023-08-06T10:58:54;97093.63;;;19.64;59.31
22311;BME280;11323;49.610;11.016;2023-08-06T11:03:56;97091.78;;;19.64;59.34
22311;BME280;11323;49.610;11.016;2023-08-06T11:08:57;97088.22;;;19.70;58.97
22311;BME280;11323;49.610;11.016;2023-08-06T11:13:57;97069.97;;;19.69;59.07
22311;BME280;11323;49.610;11.016;2023-08-06T11:18:57;97077.41;;;19.72;58.41
22311;BME280;11323;49.610;11.016;2023-08-06T11:23:59;97073.75;;;19.73;58.36
22311;BME280;11323;49.610;11.016;2023-08-06T11:29:00;97076.97;;;19.75;58.21
22311;BME280;11323;49.610;11.016;2023-08-06T11:34:00;97055.56;;;19.76;58.09
22311;BME280;11323;49.610;11.016;2023-08-06T11:39:01;97064.09;;;19.79;57.78
22311;BME280;11323;49.610;11.016;2023-08-06T11:44:03;97055.00;;;19.63;57.77
22311;BME280;11323;49.610;11.016;2023-08-06T11:49:03;97062.81;;;19.69;58.21
22311;BME280;11323;49.610;11.016;2023-08-06T11:54:04;97045.69;;;19.72;58.48
22311;BME280;11323;49.610;11.016;2023-08-06T11:59:04;97054.19;;;19.74;58.63
22311;BME280;11323;49.610;11.016;2023-08-06T12:04:05;97048.91;;;19.74;58.68
22311;BME280;11323;49.610;11.016;2023-08-06T12:09:06;97053.88;;;19.70;58.54
22311;BME280;11323;49.610;11.016;2023-08-06T12:14:06;97044.09;;;19.71;58.66
22311;BME280;11323;49.610;11.016;2023-08-06T12:19:07;97048.00;;;19.80;58.45
22311;BME280;11323;49.610;11.016;2023-08-06T12:24:07;97046.72;;;19.71;58.39
22311;BME280;11323;49.610;11.016;2023-08-06T12:29:09;97059.25;;;19.64;57.88
22311;BME280;11323;49.610;11.016;2023-08-06T12:34:09;97075.81;;;19.71;58.05
22311;BME280;11323;49.610;11.016;2023-08-06T12:39:10;97072.72;;;19.62;58.11
22311;BME280;11323;49.610;11.016;2023-08-06T12:44:10;97049.72;;;19.51;58.10
22311;BME280;11323;49.610;11.016;2023-08-06T12:49:11;97058.56;;;19.56;57.79
22311;BME280;11323;49.610;11.016;2023-08-06T12:54:11;97051.47;;;19.69;58.25
22311;BME280;11323;49.610;11.016;2023-08-06T12:59:13;97046.28;;;19.74;58.27
22311;BME280;11323;49.610;11.016;2023-08-06T13:04:13;97038.34;;;19.74;58.45
22311;BME280;11323;49.610;11.016;2023-08-06T13:09:15;97052.81;;;19.83;57.82
22311;BME280;11323;49.610;11.016;2023-08-06T13:14:15;97073.09;;;19.89;58.08
22311;BME280;11323;49.610;11.016;2023-08-06T13:19:16;97080.00;;;19.90;57.94
22311;BME280;11323;49.610;11.016;2023-08-06T13:24:17;97083.66;;;19.89;57.88
22311;BME280;11323;49.610;11.016;2023-08-06T13:29:17;97081.25;;;19.88;58.13
22311;BME280;11323;49.610;11.016;2023-08-06T13:34:17;97089.75;;;19.90;58.39
22311;BME280;11323;49.610;11.016;2023-08-06T13:39:18;97097.47;;;19.92;58.34
22311;BME280;11323;49.610;11.016;2023-08-06T13:44:19;97081.22;;;19.76;58.02
22311;BME280;11323;49.610;11.016;2023-08-06T13:49:20;97092.25;;;19.73;58.43
22311;BME280;11323;49.610;11.016;2023-08-06T13:54:20;97094.53;;;19.69;58.95
22311;BME280;11323;49.610;11.016;2023-08-06T13:59:21;97112.34;;;19.74;58.83
22311;BME280;11323;49.610;11.016;2023-08-06T14:04:24;97112.00;;;19.70;58.51
22311;BME280;11323;49.610;11.016;2023-08-06T14:09:24;97118.00;;;19.66;58.62
22311;BME280;11323;49.610;11.016;2023-08-06T14:14:25;97121.53;;;19.59;58.79
22311;BME280;11323;49.610;11.016;2023-08-06T14:19:27;97132.34;;;19.58;59.58
22311;BME280;11323;49.610;11.016;2023-08-06T14:24:27;97142.22;;;19.51;60.25
22311;BME280;11323;49.610;11.016;2023-08-06T14:29:28;97133.22;;;19.40;60.60
22311;BME280;11323;49.610;11.016;2023-08-06T14:34:28;97146.41;;;19.40;60.77
22311;BME280;11323;49.610;11.016;2023-08-06T14:39:28;97156.88;;;19.35;61.14
22311;BME280;11323;49.610;11.016;2023-08-06T14:44:29;97173.16;;;19.32;61.15
22311;BME280;11323;49.610;11.016;2023-08-06T14:49:29;97179.72;;;19.29;60.51
22311;BME280;11323;49.610;11.016;2023-08-06T14:54:29;97180.22;;;19.19;60.38
22311;BME280;11323;49.610;11.016;2023-08-06T14:59:30;97205.19;;;19.23;60.25
22311;BME280;11323;49.610;11.016;2023-08-06T15:04:31;97201.44;;;19.12;60.07
22311;BME280;11323;49.610;11.016;2023-08-06T15:09:31;97211.38;;;18.98;60.39
22311;BME280;11323;49.610;11.016;2023-08-06T15:14:32;97212.09;;;19.06;60.39
22311;BME280;11323;49.610;11.016;2023-08-06T15:19:32;97231.44;;;19.18;60.34
22311;BME280;11323;49.610;11.016;2023-08-06T15:24:32;97238.19;;;19.33;60.18
22311;BME280;11323;49.610;11.016;2023-08-06T15:29:33;97239.91;;;19.39;60.23
22311;BME280;11323;49.610;11.016;2023-08-06T15:34:34;97244.53;;;19.43;60.20
22311;BME280;11323;49.610;11.016;2023-08-06T15:39:34;97262.34;;;19.48;60.12
22311;BME280;11323;49.610;11.016;2023-08-06T15:44:35;97282.75;;;19.59;59.96
22311;BME280;11323;49.610;11.016;2023-08-06T15:49:35;97279.47;;;19.64;59.98
22311;BME280;11323;49.610;11.016;2023-08-06T15:54:36;97284.06;;;19.69;59.73
22311;BME280;11323;49.610;11.016;2023-08-06T15:59:36;97271.97;;;19.61;59.69
22311;BME280;11323;49.610;11.016;2023-08-06T16:04:37;97279.13;;;19.72;59.77
22311;BME280;11323;49.610;11.016;2023-08-06T16:09:37;97285.44;;;19.71;59.54
22311;BME280;11323;49.610;11.016;2023-08-06T16:14:38;97303.88;;;19.78;59.64
22311;BME280;11323;49.610;11.016;2023-08-06T16:19:42;97298.59;;;19.78;59.55
22311;BME280;11323;49.610;11.016;2023-08-06T16:24:42;97295.09;;;19.66;59.48
22311;BME280;11323;49.610;11.016;2023-08-06T16:29:43;97318.69;;;19.79;59.50
22311;BME280;11323;49.610;11.016;2023-08-06T16:34:45;97323.16;;;19.79;59.41
22311;BME280;11323;49.610;11.016;2023-08-06T16:39:46;97312.38;;;19.80;59.40
22311;BME280;11323;49.610;11.016;2023-08-06T16:44:46;97312.25;;;19.75;59.45
22311;BME280;11323;49.610;11.016;2023-08-06T16:49:47;97323.16;;;19.79;59.26
22311;BME280;11323;49.610;11.016;2023-08-06T16:54:48;97329.41;;;19.84;59.33
22311;BME280;11323;49.610;11.016;2023-08-06T16:59:49;97336.31;;;19.85;59.54
22311;BME280;11323;49.610;11.016;2023-08-06T17:04:50;97337.50;;;19.89;59.60
22311;BME280;11323;49.610;11.016;2023-08-06T17:09:50;97338.88;;;19.92;59.54
22311;BME280;11323;49.610;11.016;2023-08-06T17:14:50;97335.91;;;19.88;59.72
22311;BME280;11323;49.610;11.016;2023-08-06T17:19:51;97320.09;;;19.82;59.75
22311;BME280;11323;49.610;11.016;2023-08-06T17:24:51;97340.66;;;19.98;59.74
22311;BME280;11323;49.610;11.016;2023-08-06T17:29:52;97334.44;;;19.93;59.83
22311;BME280;11323;49.610;11.016;2023-08-06T17:34:52;97341.22;;;20.00;59.80
22311;BME280;11323;49.610;11.016;2023-08-06T17:39:53;97344.69;;;20.01;59.96
22311;BME280;11323;49.610;11.016;2023-08-06T17:44:53;97341.00;;;20.02;59.90
22311;BME280;11323;49.610;11.016;2023-08-06T17:49:54;97354.22;;;20.02;59.95
22311;BME280;11323;49.610;11.016;2023-08-06T17:54:54;97353.19;;;20.03;59.96
22311;BME280;11323;49.610;11.016;2023-08-06T17:59:54;97361.25;;;20.08;59.97
22311;BME280;11323;49.610;11.016;2023-08-06T18:04:55;97365.84;;;20.01;60.24
22311;BME280;11323;49.610;11.016;2023-08-06T18:09:55;97366.63;;;20.01;59.96
22311;BME280;11323;49.610;11.016;2023-08-06T18:14:55;97380.44;;;20.03;59.75
22311;BME280;11323;49.610;11.016;2023-08-06T18:19:58;97381.72;;;20.01;59.75
22311;BME280;11323;49.610;11.016;2023-08-06T18:24:58;97393.91;;;20.02;59.66
22311;BME280;11323;49.610;11.016;2023-08-06T18:30:03;97404.00;;;20.05;59.59
22311;BME280;11323;49.610;11.016;2023-08-06T18:35:03;97400.56;;;20.04;59.64
22311;BME280;11323;49.610;11.016;2023-08-06T18:40:06;97389.19;;;20.04;59.68
22311;BME280;11323;49.610;11.016;2023-08-06T18:45:07;97384.19;;;19.96;59.94
22311;BME280;11323;49.610;11.016;2023-08-06T18:50:08;97394.94;;;20.01;60.05
22311;BME280;11323;49.610;11.016;2023-08-06T18:55:09;97402.78;;;20.08;59.95
22311;BME280;11323;49.610;11.016;2023-08-06T19:00:10;97409.56;;;20.15;59.82
22311;BME280;11323;49.610;11.016;2023-08-06T19:05:11;97423.19;;;20.19;60.28
22311;BME280;11323;49.610;11.016;2023-08-06T19:10:11;97415.69;;;20.16;60.34
22311;BME280;11323;49.610;11.016;2023-08-06T19:15:12;97423.38;;;20.17;60.30
22311;BME280;11323;49.610;11.016;2023-08-06T19:20:12;97439.41;;;20.23;60.21
22311;BME280;11323;49.610;11.016;2023-08-06T19:25:12;97430.88;;;20.20;60.05
22311;BME280;11323;49.610;11.016;2023-08-06T19:30:13;97440.00;;;20.25;59.95
22311;BME280;11323;49.610;11.016;2023-08-06T19:35:13;97424.56;;;20.21;60.03
22311;BME280;11323;49.610;11.016;2023-08-06T19:40:13;97433.09;;;20.24;60.32
22311;BME280;11323;49.610;11.016;2023-08-06T19:45:14;97427.56;;;20.25;60.20
22311;BME280;11323;49.610;11.016;2023-08-06T19:50:15;97438.75;;;20.27;60.26
22311;BME280;11323;49.610;11.016;2023-08-06T19:55:15;97434.63;;;20.31;60.11
22311;BME280;11323;49.610;11.016;2023-08-06T20:00:16;97421.69;;;20.23;60.16
22311;BME280;11323;49.610;11.016;2023-08-06T20:05:17;97422.03;;;20.27;60.22
22311;BME280;11323;49.610;11.016;2023-08-06T20:10:17;97428.94;;;20.28;60.21
22311;BME280;11323;49.610;11.016;2023-08-06T20:15:17;97426.44;;;20.33;60.07
22311;BME280;11323;49.610;11.016;2023-08-06T20:20:18;97436.13;;;20.39;60.12
22311;BME280;11323;49.610;11.016;2023-08-06T20:25:18;97434.50;;;20.38;60.29
22311;BME280;11323;49.610;11.016;2023-08-06T20:30:19;97422.19;;;20.32;60.26
22311;BME280;11323;49.610;11.016;2023-08-06T20:35:19;97433.03;;;20.42;60.28
22311;BME280;11323;49.610;11.016;2023-08-06T20:40:20;97433.38;;;20.46;60.13
22311;BME280;11323;49.610;11.016;2023-08-06T20:45:20;97441.56;;;20.44;59.65
22311;BME280;11323;49.610;11.016;2023-08-06T20:50:20;97424.50;;;20.40;59.64
22311;BME280;11323;49.610;11.016;2023-08-06T20:55:24;97437.75;;;20.40;59.64
22311;BME280;11323;49.610;11.016;2023-08-06T21:00:24;97441.66;;;20.37;59.41
22311;BME280;11323;49.610;11.016;2023-08-06T21:05:25;97449.59;;;20.37;59.50
22311;BME280;11323;49.610;11.016;2023-08-06T21:10:27;97426.91;;;20.30;59.52
22311;BME280;11323;49.610;11.016;2023-08-06T21:15:27;97447.75;;;20.38;59.47
22311;BME280;11323;49.610;11.016;2023-08-06T21:20:27;97426.91;;;20.30;59.22
22311;BME280;11323;49.610;11.016;2023-08-06T21:25:28;97414.44;;;20.18;59.18
22311;BME280;11323;49.610;11.016;2023-08-06T21:30:30;97438.50;;;20.29;59.50
22311;BME280;11323;49.610;11.016;2023-08-06T21:35:30;97443.34;;;20.32;59.42
22311;BME280;11323;49.610;11.016;2023-08-06T21:40:33;97446.09;;;20.25;59.45
22311;BME280;11323;49.610;11.016;2023-08-06T21:45:37;97450.94;;;20.28;59.46
22311;BME280;11323;49.610;11.016;2023-08-06T21:50:37;97454.09;;;20.37;59.59
22311;BME280;11323;49.610;11.016;2023-08-06T21:55:38;97457.78;;;20.36;59.71
22311;BME280;11323;49.610;11.016;2023-08-06T22:00:38;97456.16;;;20.35;59.55
22311;BME280;11323;49.610;11.016;2023-08-06T22:05:38;97450.03;;;20.34;59.61
22311;BME280;11323;49.610;11.016;2023-08-06T22:10:39;97444.72;;;20.23;59.59
22311;BME280;11323;49.610;11.016;2023-08-06T22:15:39;97449.69;;;20.31;59.51
22311;BME280;11323;49.610;11.016;2023-08-06T22:20:39;97446.91;;;20.26;59.38
22311;BME280;11323;49.610;11.016;2023-08-06T22:25:40;97430.44;;;20.24;59.50
22311;BME280;11323;49.610;11.016;2023-08-06T22:30:40;97449.69;;;20.31;59.23
22311;BME280;11323;49.610;11.016;2023-08-06T22:35:41;97448.88;;;20.30;59.24
22311;BME280;11323;49.610;11.016;2023-08-06T22:40:41;97445.66;;;20.28;59.36
22311;BME280;11323;49.610;11.016;2023-08-06T22:45:42;97443.69;;;20.24;59.23
22311;BME280;11323;49.610;11.016;2023-08-06T22:50:42;97453.78;;;20.27;59.14
22311;BME280;11323;49.610;11.016;2023-08-06T22:55:42;97446.75;;;20.20;58.93
22311;BME280;11323;49.610;11.016;2023-08-06T23:00:43;97448.22;;;20.16;59.49
22311;BME280;11323;49.610;11.016;2023-08-06T23:05:43;97460.16;;;20.26;59.13
22311;BME280;11323;49.610;11.016;2023-08-06T23:10:43;97448.97;;;20.24;59.04
22311;BME280;11323;49.610;11.016;2023-08-06T23:15:44;97458.72;;;20.23;59.16
22311;BME280;11323;49.610;11.016;2023-08-06T23:20:44;97458.13;;;20.21;59.03
22311;BME280;11323;49.610;11.016;2023-08-06T23:25:45;97453.91;;;20.20;58.99
22311;BME280;11323;49.610;11.016;2023-08-06T23:30:45;97447.78;;;20.19;58.99
22311;BME280;11323;49.610;11.016;2023-08-06T23:35:50;97451.69;;;20.17;59.13
22311;BME280;11323;49.610;11.016;2023-08-06T23:40:51;97439.72;;;20.14;58.99
22311;BME280;11323;49.610;11.016;2023-08-06T23:45:51;97433.63;;;20.14;59.24
22311;BME280;11323;49.610;11.016;2023-08-06T23:50:57;97437.09;;;20.14;58.85
22311;BME280;11323;49.610;11.016;2023-08-06T23:55:58;97450.88;;;20.16;59.03
